sensor_id;sensor_type;location;lat;lon;timestamp;temperature;humidity
68609;SHT31;55581;46.718;7.690;2023-11-19T00:01:38;6.77;95.25
68609;SHT31;55581;46.718;7.690;2023-11-19T00:04:03;6.75;95.18
68609;SHT31;55581;46.718;7.690;2023-11-19T00:06:31;6.77;95.59
68609;SHT31;55581;46.718;7.690;2023-11-19T00:08:57;6.78;95.63
68609;SHT31;55581;46.718;7.690;2023-11-19T00:11:22;6.87;94.88
68609;SHT31;55581;46.718;7.690;2023-11-19T00:13:50;6.88;94.33
68609;SHT31;55581;46.718;7.690;2023-11-19T00:16:15;6.83;94.69
68609;SHT31;55581;46.718;7.690;2023-11-19T00:18:41;6.80;94.89
68609;SHT31;55581;46.718;7.690;2023-11-19T00:21:09;6.80;94.97
68609;SHT31;55581;46.718;7.690;2023-11-19T00:23:37;6.77;95.20
68609;SHT31;55581;46.718;7.690;2023-11-19T00:26:03;6.68;95.05
68609;SHT31;55581;46.718;7.690;2023-11-19T00:28:31;6.71;95.52
68609;SHT31;55581;46.718;7.690;2023-11-19T00:30:57;6.70;95.71
68609;SHT31;55581;46.718;7.690;2023-11-19T00:33:22;6.61;95.52
68609;SHT31;55581;46.718;7.690;2023-11-19T00:35:48;6.63;95.99
68609;SHT31;55581;46.718;7.690;2023-11-19T00:38:13;6.64;95.98
68609;SHT31;55581;46.718;7.690;2023-11-19T00:40:39;6.64;95.39
68609;SHT31;55581;46.718;7.690;2023-11-19T00:43:06;6.63;95.62
68609;SHT31;55581;46.718;7.690;2023-11-19T00:45:32;6.64;95.82
68609;SHT31;55581;46.718;7.690;2023-11-19T00:47:58;6.64;96.34
68609;SHT31;55581;46.718;7.690;2023-11-19T00:50:27;6.66;95.92
68609;SHT31;55581;46.718;7.690;2023-11-19T00:52:52;6.67;96.04
68609;SHT31;55581;46.718;7.690;2023-11-19T00:55:18;6.68;95.91
68609;SHT31;55581;46.718;7.690;2023-11-19T00:57:43;6.71;96.35
68609;SHT31;55581;46.718;7.690;2023-11-19T01:00:11;6.73;96.32
68609;SHT31;55581;46.718;7.690;2023-11-19T01:02:45;6.78;96.23
68609;SHT31;55581;46.718;7.690;2023-11-19T01:05:10;6.75;96.21
68609;SHT31;55581;46.718;7.690;2023-11-19T01:07:39;6.81;96.81
68609;SHT31;55581;46.718;7.690;2023-11-19T01:10:05;6.81;96.12
68609;SHT31;55581;46.718;7.690;2023-11-19T01:12:32;6.80;96.30
68609;SHT31;55581;46.718;7.690;2023-11-19T01:14:58;6.84;96.08
68609;SHT31;55581;46.718;7.690;2023-11-19T01:17:23;6.80;96.34
68609;SHT31;55581;46.718;7.690;2023-11-19T01:19:48;6.75;96.45
68609;SHT31;55581;46.718;7.690;2023-11-19T01:22:15;6.73;96.78
68609;SHT31;55581;46.718;7.690;2023-11-19T01:24:43;6.70;96.42
68609;SHT31;55581;46.718;7.690;2023-11-19T01:27:10;6.67;96.56
68609;SHT31;55581;46.718;7.690;2023-11-19T01:29:38;6.71;96.66
68609;SHT31;55581;46.718;7.690;2023-11-19T01:32:04;6.75;96.03
68609;SHT31;55581;46.718;7.690;2023-11-19T01:34:30;6.80;96.46
68609;SHT31;55581;46.718;7.690;2023-11-19T01:36:55;6.88;96.19
68609;SHT31;55581;46.718;7.690;2023-11-19T01:39:21;6.91;96.07
68609;SHT31;55581;46.718;7.690;2023-11-19T01:41:47;6.88;96.68
68609;SHT31;55581;46.718;7.690;2023-11-19T01:44:14;6.91;96.56
68609;SHT31;55581;46.718;7.690;2023-11-19T01:46:44;6.91;96.58
68609;SHT31;55581;46.718;7.690;2023-11-19T01:49:14;6.95;96.63
68609;SHT31;55581;46.718;7.690;2023-11-19T01:51:42;6.94;96.19
68609;SHT31;55581;46.718;7.690;2023-11-19T01:54:08;6.92;96.51
68609;SHT31;55581;46.718;7.690;2023-11-19T01:56:35;6.95;96.22
68609;SHT31;55581;46.718;7.690;2023-11-19T01:59:02;6.98;96.22
68609;SHT31;55581;46.718;7.690;2023-11-19T02:01:29;7.05;96.16
68609;SHT31;55581;46.718;7.690;2023-11-19T02:03:55;6.95;96.04
68609;SHT31;55581;46.718;7.690;2023-11-19T02:06:20;6.99;96.60
68609;SHT31;55581;46.718;7.690;2023-11-19T02:08:46;6.96;96.50
68609;SHT31;55581;46.718;7.690;2023-11-19T02:11:15;6.98;96.30
68609;SHT31;55581;46.718;7.690;2023-11-19T02:13:40;6.99;96.16
68609;SHT31;55581;46.718;7.690;2023-11-19T02:16:06;7.04;96.12
68609;SHT31;55581;46.718;7.690;2023-11-19T02:18:33;7.05;95.96
68609;SHT31;55581;46.718;7.690;2023-11-19T02:20:59;7.01;96.22
68609;SHT31;55581;46.718;7.690;2023-11-19T02:23:28;7.09;95.89
68609;SHT31;55581;46.718;7.690;2023-11-19T02:26:03;7.11;95.53
68609;SHT31;55581;46.718;7.690;2023-11-19T02:28:32;7.08;95.79
68609;SHT31;55581;46.718;7.690;2023-11-19T02:30:58;7.09;95.89
68609;SHT31;55581;46.718;7.690;2023-11-19T02:33:24;7.18;95.73
68609;SHT31;55581;46.718;7.690;2023-11-19T02:35:50;7.20;95.31
68609;SHT31;55581;46.718;7.690;2023-11-19T02:38:16;7.16;95.66
68609;SHT31;55581;46.718;7.690;2023-11-19T02:40:42;7.23;95.41
68609;SHT31;55581;46.718;7.690;2023-11-19T02:43:07;7.33;94.81
68609;SHT31;55581;46.718;7.690;2023-11-19T02:45:34;7.29;95.13
68609;SHT31;55581;46.718;7.690;2023-11-19T02:47:59;7.34;95.15
68609;SHT31;55581;46.718;7.690;2023-11-19T02:50:27;7.36;94.59
68609;SHT31;55581;46.718;7.690;2023-11-19T02:52:55;7.39;95.02
68609;SHT31;55581;46.718;7.690;2023-11-19T02:55:22;7.34;94.97
68609;SHT31;55581;46.718;7.690;2023-11-19T02:57:49;7.30;95.19
68609;SHT31;55581;46.718;7.690;2023-11-19T03:00:22;7.30;95.78
68609;SHT31;55581;46.718;7.690;2023-11-19T03:02:57;7.32;95.73
68609;SHT31;55581;46.718;7.690;2023-11-19T03:05:35;7.32;96.01
68609;SHT31;55581;46.718;7.690;2023-11-19T03:08:00;7.30;96.05
68609;SHT31;55581;46.718;7.690;2023-11-19T03:10:25;7.34;96.15
68609;SHT31;55581;46.718;7.690;2023-11-19T03:12:51;7.33;95.83
68609;SHT31;55581;46.718;7.690;2023-11-19T03:15:16;7.34;95.97
68609;SHT31;55581;46.718;7.690;2023-11-19T03:17:42;7.39;96.25
68609;SHT31;55581;46.718;7.690;2023-11-19T03:20:11;7.49;95.80
68609;SHT31;55581;46.718;7.690;2023-11-19T03:22:42;7.56;95.27
68609;SHT31;55581;46.718;7.690;2023-11-19T03:25:09;7.63;95.00
68609;SHT31;55581;46.718;7.690;2023-11-19T03:27:36;7.61;94.59
68609;SHT31;55581;46.718;7.690;2023-11-19T03:30:02;7.64;94.87
68609;SHT31;55581;46.718;7.690;2023-11-19T03:32:33;7.64;94.77
68609;SHT31;55581;46.718;7.690;2023-11-19T03:35:00;7.59;94.86
68609;SHT31;55581;46.718;7.690;2023-11-19T03:37:26;7.68;94.18
68609;SHT31;55581;46.718;7.690;2023-11-19T03:39:53;7.68;94.12
68609;SHT31;55581;46.718;7.690;2023-11-19T03:42:19;7.74;94.01
68609;SHT31;55581;46.718;7.690;2023-11-19T03:44:46;7.85;94.42
68609;SHT31;55581;46.718;7.690;2023-11-19T03:47:11;7.97;94.54
68609;SHT31;55581;46.718;7.690;2023-11-19T03:49:37;8.10;95.02
68609;SHT31;55581;46.718;7.690;2023-11-19T03:52:02;8.21;94.00
68609;SHT31;55581;46.718;7.690;2023-11-19T03:54:28;8.28;94.10
68609;SHT31;55581;46.718;7.690;2023-11-19T03:56:53;8.30;93.53
68609;SHT31;55581;46.718;7.690;2023-11-19T03:59:18;8.23;93.37
68609;SHT31;55581;46.718;7.690;2023-11-19T04:01:45;8.19;94.03
68609;SHT31;55581;46.718;7.690;2023-11-19T04:04:11;8.23;93.69
68609;SHT31;55581;46.718;7.690;2023-11-19T04:06:37;8.16;93.95
68609;SHT31;55581;46.718;7.690;2023-11-19T04:09:03;8.08;94.50
68609;SHT31;55581;46.718;7.690;2023-11-19T04:11:28;8.08;95.18
68609;SHT31;55581;46.718;7.690;2023-11-19T04:13:56;8.01;95.05
68609;SHT31;55581;46.718;7.690;2023-11-19T04:16:28;7.97;95.57
68609;SHT31;55581;46.718;7.690;2023-11-19T04:18:54;7.99;95.83
68609;SHT31;55581;46.718;7.690;2023-11-19T04:21:19;8.02;95.02
68609;SHT31;55581;46.718;7.690;2023-11-19T04:23:44;7.99;94.94
68609;SHT31;55581;46.718;7.690;2023-11-19T04:26:10;8.03;94.98
68609;SHT31;55581;46.718;7.690;2023-11-19T04:28:35;8.08;95.22
68609;SHT31;55581;46.718;7.690;2023-11-19T04:31:01;8.06;95.52
68609;SHT31;55581;46.718;7.690;2023-11-19T04:33:28;8.03;96.06
68609;SHT31;55581;46.718;7.690;2023-11-19T04:35:54;8.12;96.05
68609;SHT31;55581;46.718;7.690;2023-11-19T04:38:19;8.17;96.29
68609;SHT31;55581;46.718;7.690;2023-11-19T04:40:44;8.17;96.09
68609;SHT31;55581;46.718;7.690;2023-11-19T04:43:10;8.29;96.22
68609;SHT31;55581;46.718;7.690;2023-11-19T04:45:35;8.29;96.17
68609;SHT31;55581;46.718;7.690;2023-11-19T04:48:01;8.37;95.77
68609;SHT31;55581;46.718;7.690;2023-11-19T04:50:29;8.47;95.19
68609;SHT31;55581;46.718;7.690;2023-11-19T04:52:54;8.34;95.22
68609;SHT31;55581;46.718;7.690;2023-11-19T04:55:21;8.33;95.50
68609;SHT31;55581;46.718;7.690;2023-11-19T04:57:48;8.30;95.55
68609;SHT31;55581;46.718;7.690;2023-11-19T05:00:14;8.29;95.32
68609;SHT31;55581;46.718;7.690;2023-11-19T05:02:39;8.30;95.54
68609;SHT31;55581;46.718;7.690;2023-11-19T05:05:05;8.28;95.81
68609;SHT31;55581;46.718;7.690;2023-11-19T05:07:31;8.32;95.36
68609;SHT31;55581;46.718;7.690;2023-11-19T05:09:56;8.30;95.47
68609;SHT31;55581;46.718;7.690;2023-11-19T05:12:22;8.33;95.26
68609;SHT31;55581;46.718;7.690;2023-11-19T05:14:48;8.33;95.46
68609;SHT31;55581;46.718;7.690;2023-11-19T05:17:17;8.39;95.47
68609;SHT31;55581;46.718;7.690;2023-11-19T05:19:43;8.33;95.66
68609;SHT31;55581;46.718;7.690;2023-11-19T05:22:08;8.33;95.97
68609;SHT31;55581;46.718;7.690;2023-11-19T05:24:34;8.33;96.13
68609;SHT31;55581;46.718;7.690;2023-11-19T05:27:01;8.34;96.10
68609;SHT31;55581;46.718;7.690;2023-11-19T05:29:27;8.33;96.60
68609;SHT31;55581;46.718;7.690;2023-11-19T05:31:52;8.32;96.33
68609;SHT31;55581;46.718;7.690;2023-11-19T05:34:19;8.36;95.84
68609;SHT31;55581;46.718;7.690;2023-11-19T05:36:45;8.34;95.40
68609;SHT31;55581;46.718;7.690;2023-11-19T05:39:11;8.25;95.62
68609;SHT31;55581;46.718;7.690;2023-11-19T05:41:36;8.21;96.05
68609;SHT31;55581;46.718;7.690;2023-11-19T05:44:02;8.15;96.06
68609;SHT31;55581;46.718;7.690;2023-11-19T05:46:27;8.10;95.92
68609;SHT31;55581;46.718;7.690;2023-11-19T05:48:53;8.05;96.32
68609;SHT31;55581;46.718;7.690;2023-11-19T05:51:18;8.05;96.25
68609;SHT31;55581;46.718;7.690;2023-11-19T05:53:44;8.08;96.60
68609;SHT31;55581;46.718;7.690;2023-11-19T05:56:13;8.06;96.59
68609;SHT31;55581;46.718;7.690;2023-11-19T05:58:41;8.08;96.31
68609;SHT31;55581;46.718;7.690;2023-11-19T06:01:06;8.06;96.28
68609;SHT31;55581;46.718;7.690;2023-11-19T06:03:35;8.08;96.79
68609;SHT31;55581;46.718;7.690;2023-11-19T06:06:00;8.12;96.79
68609;SHT31;55581;46.718;7.690;2023-11-19T06:08:26;8.10;96.89
68609;SHT31;55581;46.718;7.690;2023-11-19T06:10:52;8.09;97.11
68609;SHT31;55581;46.718;7.690;2023-11-19T06:13:18;8.09;97.29
68609;SHT31;55581;46.718;7.690;2023-11-19T06:15:43;8.16;96.92
68609;SHT31;55581;46.718;7.690;2023-11-19T06:18:09;8.16;97.02
68609;SHT31;55581;46.718;7.690;2023-11-19T06:20:37;8.15;97.12
68609;SHT31;55581;46.718;7.690;2023-11-19T06:23:03;8.19;97.05
68609;SHT31;55581;46.718;7.690;2023-11-19T06:25:28;8.19;97.32
68609;SHT31;55581;46.718;7.690;2023-11-19T06:27:53;8.17;97.54
68609;SHT31;55581;46.718;7.690;2023-11-19T06:30:19;8.21;97.77
68609;SHT31;55581;46.718;7.690;2023-11-19T06:32:48;8.21;97.28
68609;SHT31;55581;46.718;7.690;2023-11-19T06:35:13;8.19;97.32
68609;SHT31;55581;46.718;7.690;2023-11-19T06:37:39;8.21;97.50
68609;SHT31;55581;46.718;7.690;2023-11-19T06:40:06;8.21;97.66
68609;SHT31;55581;46.718;7.690;2023-11-19T06:42:32;8.19;97.21
68609;SHT31;55581;46.718;7.690;2023-11-19T06:44:58;8.21;97.08
68609;SHT31;55581;46.718;7.690;2023-11-19T06:47:27;8.22;97.28
68609;SHT31;55581;46.718;7.690;2023-11-19T06:49:53;8.22;97.68
68609;SHT31;55581;46.718;7.690;2023-11-19T06:52:19;8.28;97.64
68609;SHT31;55581;46.718;7.690;2023-11-19T06:54:44;8.29;97.42
68609;SHT31;55581;46.718;7.690;2023-11-19T06:57:11;8.30;97.20
68609;SHT31;55581;46.718;7.690;2023-11-19T06:59:36;8.26;97.13
68609;SHT31;55581;46.718;7.690;2023-11-19T07:02:05;8.30;97.31
68609;SHT31;55581;46.718;7.690;2023-11-19T07:04:33;8.33;97.41
68609;SHT31;55581;46.718;7.690;2023-11-19T07:06:58;8.32;97.18
68609;SHT31;55581;46.718;7.690;2023-11-19T07:09:25;8.34;97.49
68609;SHT31;55581;46.718;7.690;2023-11-19T07:11:51;8.36;97.14
68609;SHT31;55581;46.718;7.690;2023-11-19T07:14:19;8.43;96.90
68609;SHT31;55581;46.718;7.690;2023-11-19T07:16:45;8.43;97.22
68609;SHT31;55581;46.718;7.690;2023-11-19T07:19:11;8.40;97.54
68609;SHT31;55581;46.718;7.690;2023-11-19T07:21:39;8.40;97.38
68609;SHT31;55581;46.718;7.690;2023-11-19T07:24:09;8.37;97.28
68609;SHT31;55581;46.718;7.690;2023-11-19T07:26:34;8.33;97.33
68609;SHT31;55581;46.718;7.690;2023-11-19T07:29:00;8.32;97.52
68609;SHT31;55581;46.718;7.690;2023-11-19T07:31:26;8.32;98.00
68609;SHT31;55581;46.718;7.690;2023-11-19T07:33:53;8.33;97.97
68609;SHT31;55581;46.718;7.690;2023-11-19T07:36:19;8.34;98.04
68609;SHT31;55581;46.718;7.690;2023-11-19T07:38:45;8.33;97.54
68609;SHT31;55581;46.718;7.690;2023-11-19T07:41:16;8.29;97.59
68609;SHT31;55581;46.718;7.690;2023-11-19T07:43:44;8.32;98.09
68609;SHT31;55581;46.718;7.690;2023-11-19T07:46:12;8.32;97.98
68609;SHT31;55581;46.718;7.690;2023-11-19T07:48:40;8.33;97.92
68609;SHT31;55581;46.718;7.690;2023-11-19T07:51:10;8.37;97.75
68609;SHT31;55581;46.718;7.690;2023-11-19T07:53:36;8.44;97.30
68609;SHT31;55581;46.718;7.690;2023-11-19T07:56:04;8.59;97.34
68609;SHT31;55581;46.718;7.690;2023-11-19T07:58:29;8.68;97.05
68609;SHT31;55581;46.718;7.690;2023-11-19T08:00:55;8.70;96.94
68609;SHT31;55581;46.718;7.690;2023-11-19T08:03:20;8.70;96.89
68609;SHT31;55581;46.718;7.690;2023-11-19T08:05:47;8.72;96.99
68609;SHT31;55581;46.718;7.690;2023-11-19T08:08:12;8.71;97.00
68609;SHT31;55581;46.718;7.690;2023-11-19T08:10:38;8.74;97.07
68609;SHT31;55581;46.718;7.690;2023-11-19T08:13:05;8.77;97.14
68609;SHT31;55581;46.718;7.690;2023-11-19T08:15:31;8.75;97.30
68609;SHT31;55581;46.718;7.690;2023-11-19T08:17:56;8.85;97.21
68609;SHT31;55581;46.718;7.690;2023-11-19T08:20:22;8.97;96.98
68609;SHT31;55581;46.718;7.690;2023-11-19T08:22:48;9.19;96.69
68609;SHT31;55581;46.718;7.690;2023-11-19T08:25:15;9.35;96.15
68609;SHT31;55581;46.718;7.690;2023-11-19T08:27:41;9.64;95.23
68609;SHT31;55581;46.718;7.690;2023-11-19T08:30:07;9.80;94.90
68609;SHT31;55581;46.718;7.690;2023-11-19T08:32:33;9.92;94.50
68609;SHT31;55581;46.718;7.690;2023-11-19T08:34:59;9.87;94.27
68609;SHT31;55581;46.718;7.690;2023-11-19T08:37:25;9.70;94.81
68609;SHT31;55581;46.718;7.690;2023-11-19T08:39:50;9.54;95.53
68609;SHT31;55581;46.718;7.690;2023-11-19T08:42:17;9.46;95.95
68609;SHT31;55581;46.718;7.690;2023-11-19T08:44:51;9.35;96.17
68609;SHT31;55581;46.718;7.690;2023-11-19T08:47:21;9.29;96.59
68609;SHT31;55581;46.718;7.690;2023-11-19T08:49:50;9.26;96.75
68609;SHT31;55581;46.718;7.690;2023-11-19T08:52:15;9.25;96.97
68609;SHT31;55581;46.718;7.690;2023-11-19T08:54:42;9.25;97.10
68609;SHT31;55581;46.718;7.690;2023-11-19T08:57:08;9.26;97.45
68609;SHT31;55581;46.718;7.690;2023-11-19T08:59:34;9.27;97.16
68609;SHT31;55581;46.718;7.690;2023-11-19T09:01:59;9.35;96.78
68609;SHT31;55581;46.718;7.690;2023-11-19T09:04:25;9.40;97.03
68609;SHT31;55581;46.718;7.690;2023-11-19T09:06:50;9.48;97.43
68609;SHT31;55581;46.718;7.690;2023-11-19T09:09:16;9.60;97.95
68609;SHT31;55581;46.718;7.690;2023-11-19T09:11:44;9.75;97.66
68609;SHT31;55581;46.718;7.690;2023-11-19T09:14:11;9.97;97.45
68609;SHT31;55581;46.718;7.690;2023-11-19T09:16:37;10.09;96.96
68609;SHT31;55581;46.718;7.690;2023-11-19T09:19:03;10.22;96.33
68609;SHT31;55581;46.718;7.690;2023-11-19T09:21:28;10.30;96.21
68609;SHT31;55581;46.718;7.690;2023-11-19T09:23:57;10.36;96.08
68609;SHT31;55581;46.718;7.690;2023-11-19T09:26:23;10.37;96.25
68609;SHT31;55581;46.718;7.690;2023-11-19T09:28:50;10.47;95.56
68609;SHT31;55581;46.718;7.690;2023-11-19T09:31:16;10.55;95.36
68609;SHT31;55581;46.718;7.690;2023-11-19T09:33:42;10.50;95.72
68609;SHT31;55581;46.718;7.690;2023-11-19T09:36:08;10.47;96.42
68609;SHT31;55581;46.718;7.690;2023-11-19T09:38:35;10.45;96.36
68609;SHT31;55581;46.718;7.690;2023-11-19T09:41:06;10.46;96.68
68609;SHT31;55581;46.718;7.690;2023-11-19T09:43:37;10.60;94.61
68609;SHT31;55581;46.718;7.690;2023-11-19T09:46:05;10.46;93.99
68609;SHT31;55581;46.718;7.690;2023-11-19T09:48:38;10.42;94.33
68609;SHT31;55581;46.718;7.690;2023-11-19T09:51:07;10.32;94.28
68609;SHT31;55581;46.718;7.690;2023-11-19T09:53:34;10.25;94.51
68609;SHT31;55581;46.718;7.690;2023-11-19T09:56:02;10.18;94.88
68609;SHT31;55581;46.718;7.690;2023-11-19T09:58:29;10.11;95.37
68609;SHT31;55581;46.718;7.690;2023-11-19T10:00:54;10.12;95.68
68609;SHT31;55581;46.718;7.690;2023-11-19T10:03:21;10.13;95.93
68609;SHT31;55581;46.718;7.690;2023-11-19T10:05:48;10.16;95.84
68609;SHT31;55581;46.718;7.690;2023-11-19T10:08:14;10.19;95.77
68609;SHT31;55581;46.718;7.690;2023-11-19T10:10:41;10.13;95.94
68609;SHT31;55581;46.718;7.690;2023-11-19T10:13:06;10.01;96.14
68609;SHT31;55581;46.718;7.690;2023-11-19T10:15:37;9.97;96.55
68609;SHT31;55581;46.718;7.690;2023-11-19T10:18:03;10.02;96.52
68609;SHT31;55581;46.718;7.690;2023-11-19T10:20:40;10.02;96.79
68609;SHT31;55581;46.718;7.690;2023-11-19T10:23:06;10.05;96.75
68609;SHT31;55581;46.718;7.690;2023-11-19T10:25:33;10.02;97.08
68609;SHT31;55581;46.718;7.690;2023-11-19T10:27:58;10.05;97.12
68609;SHT31;55581;46.718;7.690;2023-11-19T10:30:26;10.16;97.05
68609;SHT31;55581;46.718;7.690;2023-11-19T10:33:11;10.22;96.96
68609;SHT31;55581;46.718;7.690;2023-11-19T10:35:55;10.40;96.60
68609;SHT31;55581;46.718;7.690;2023-11-19T10:38:26;10.40;96.45
68609;SHT31;55581;46.718;7.690;2023-11-19T10:40:52;10.42;95.64
68609;SHT31;55581;46.718;7.690;2023-11-19T10:43:22;10.36;95.21
68609;SHT31;55581;46.718;7.690;2023-11-19T10:45:48;10.33;95.30
68609;SHT31;55581;46.718;7.690;2023-11-19T10:48:14;10.36;95.68
68609;SHT31;55581;46.718;7.690;2023-11-19T10:50:43;10.35;96.20
68609;SHT31;55581;46.718;7.690;2023-11-19T10:53:10;10.30;96.51
68609;SHT31;55581;46.718;7.690;2023-11-19T10:55:38;10.32;96.83
68609;SHT31;55581;46.718;7.690;2023-11-19T10:58:08;10.33;96.99
68609;SHT31;55581;46.718;7.690;2023-11-19T11:00:54;10.43;96.21
68609;SHT31;55581;46.718;7.690;2023-11-19T11:03:22;10.53;95.78
68609;SHT31;55581;46.718;7.690;2023-11-19T11:05:51;10.56;95.43
68609;SHT31;55581;46.718;7.690;2023-11-19T11:08:17;10.55;95.28
68609;SHT31;55581;46.718;7.690;2023-11-19T11:10:54;10.46;94.95
68609;SHT31;55581;46.718;7.690;2023-11-19T11:13:22;10.43;94.78
68609;SHT31;55581;46.718;7.690;2023-11-19T11:15:48;10.43;95.00
68609;SHT31;55581;46.718;7.690;2023-11-19T11:18:14;10.42;95.23
68609;SHT31;55581;46.718;7.690;2023-11-19T11:20:40;10.43;95.47
68609;SHT31;55581;46.718;7.690;2023-11-19T11:29:41;10.46;96.20
68609;SHT31;55581;46.718;7.690;2023-11-19T11:32:20;10.47;96.64
68609;SHT31;55581;46.718;7.690;2023-11-19T11:37:43;10.61;95.62
68609;SHT31;55581;46.718;7.690;2023-11-19T11:40:16;10.57;95.16
68609;SHT31;55581;46.718;7.690;2023-11-19T11:42:44;10.57;95.16
68609;SHT31;55581;46.718;7.690;2023-11-19T11:45:11;10.43;94.62
68609;SHT31;55581;46.718;7.690;2023-11-19T11:50:19;10.29;95.44
68609;SHT31;55581;46.718;7.690;2023-11-19T11:55:35;10.06;96.48
68609;SHT31;55581;46.718;7.690;2023-11-19T11:58:05;10.09;96.62
68609;SHT31;55581;46.718;7.690;2023-11-19T12:00:39;10.12;96.73
68609;SHT31;55581;46.718;7.690;2023-11-19T12:03:06;10.12;96.92
68609;SHT31;55581;46.718;7.690;2023-11-19T12:05:32;10.16;97.05
68609;SHT31;55581;46.718;7.690;2023-11-19T12:08:04;10.15;97.22
68609;SHT31;55581;46.718;7.690;2023-11-19T12:10:36;10.18;97.47
68609;SHT31;55581;46.718;7.690;2023-11-19T12:13:04;10.19;97.40
68609;SHT31;55581;46.718;7.690;2023-11-19T12:15:32;10.22;97.16
68609;SHT31;55581;46.718;7.690;2023-11-19T12:17:57;10.29;97.52
68609;SHT31;55581;46.718;7.690;2023-11-19T12:20:25;10.36;97.09
68609;SHT31;55581;46.718;7.690;2023-11-19T12:22:51;10.36;97.03
68609;SHT31;55581;46.718;7.690;2023-11-19T12:25:17;10.46;97.00
68609;SHT31;55581;46.718;7.690;2023-11-19T12:27:49;10.52;96.28
68609;SHT31;55581;46.718;7.690;2023-11-19T12:30:25;10.59;96.39
68609;SHT31;55581;46.718;7.690;2023-11-19T12:32:51;10.59;96.27
68609;SHT31;55581;46.718;7.690;2023-11-19T12:35:19;10.60;96.10
68609;SHT31;55581;46.718;7.690;2023-11-19T12:37:49;10.60;95.53
68609;SHT31;55581;46.718;7.690;2023-11-19T12:40:19;10.60;95.79
68609;SHT31;55581;46.718;7.690;2023-11-19T12:42:46;10.60;95.89
68609;SHT31;55581;46.718;7.690;2023-11-19T12:45:12;10.64;96.13
68609;SHT31;55581;46.718;7.690;2023-11-19T12:47:40;10.67;96.24
68609;SHT31;55581;46.718;7.690;2023-11-19T12:50:07;10.78;96.64
68609;SHT31;55581;46.718;7.690;2023-11-19T12:52:36;10.85;96.92
68609;SHT31;55581;46.718;7.690;2023-11-19T12:55:03;10.92;97.19
68609;SHT31;55581;46.718;7.690;2023-11-19T12:57:40;11.00;97.37
68609;SHT31;55581;46.718;7.690;2023-11-19T13:00:06;11.16;95.92
68609;SHT31;55581;46.718;7.690;2023-11-19T13:03:02;11.28;97.32
68609;SHT31;55581;46.718;7.690;2023-11-19T13:05:32;11.52;98.40
68609;SHT31;55581;46.718;7.690;2023-11-19T13:08:09;11.50;94.35
68609;SHT31;55581;46.718;7.690;2023-11-19T13:11:04;11.38;94.73
68609;SHT31;55581;46.718;7.690;2023-11-19T13:13:29;11.23;95.94
68609;SHT31;55581;46.718;7.690;2023-11-19T13:16:04;11.21;96.51
68609;SHT31;55581;46.718;7.690;2023-11-19T13:18:34;11.18;96.55
68609;SHT31;55581;46.718;7.690;2023-11-19T13:20:59;11.25;96.09
68609;SHT31;55581;46.718;7.690;2023-11-19T13:23:25;11.19;95.15
68609;SHT31;55581;46.718;7.690;2023-11-19T13:25:50;11.05;94.86
68609;SHT31;55581;46.718;7.690;2023-11-19T13:28:18;10.92;95.80
68609;SHT31;55581;46.718;7.690;2023-11-19T13:30:47;10.84;96.38
68609;SHT31;55581;46.718;7.690;2023-11-19T13:33:13;10.83;96.67
68609;SHT31;55581;46.718;7.690;2023-11-19T13:35:39;10.84;97.20
68609;SHT31;55581;46.718;7.690;2023-11-19T13:38:06;10.84;97.09
68609;SHT31;55581;46.718;7.690;2023-11-19T13:40:31;10.87;97.17
68609;SHT31;55581;46.718;7.690;2023-11-19T13:42:57;10.88;97.21
68609;SHT31;55581;46.718;7.690;2023-11-19T13:45:22;10.87;97.31
68609;SHT31;55581;46.718;7.690;2023-11-19T13:47:50;10.88;96.86
68609;SHT31;55581;46.718;7.690;2023-11-19T13:50:16;10.88;95.82
68609;SHT31;55581;46.718;7.690;2023-11-19T13:52:47;10.84;95.97
68609;SHT31;55581;46.718;7.690;2023-11-19T13:55:15;10.85;95.89
68609;SHT31;55581;46.718;7.690;2023-11-19T13:57:41;10.88;96.10
68609;SHT31;55581;46.718;7.690;2023-11-19T14:00:11;10.88;96.22
68609;SHT31;55581;46.718;7.690;2023-11-19T14:02:47;10.88;96.12
68609;SHT31;55581;46.718;7.690;2023-11-19T14:05:14;10.94;95.53
68609;SHT31;55581;46.718;7.690;2023-11-19T14:07:40;10.90;96.00
68609;SHT31;55581;46.718;7.690;2023-11-19T14:10:07;10.91;96.29
68609;SHT31;55581;46.718;7.690;2023-11-19T14:12:34;10.92;96.76
68609;SHT31;55581;46.718;7.690;2023-11-19T14:15:02;11.01;96.40
68609;SHT31;55581;46.718;7.690;2023-11-19T14:17:30;11.00;96.76
68609;SHT31;55581;46.718;7.690;2023-11-19T14:19:56;10.98;96.32
68609;SHT31;55581;46.718;7.690;2023-11-19T14:22:22;10.88;96.27
68609;SHT31;55581;46.718;7.690;2023-11-19T14:24:47;10.88;96.37
68609;SHT31;55581;46.718;7.690;2023-11-19T14:27:15;10.88;96.44
68609;SHT31;55581;46.718;7.690;2023-11-19T14:29:42;10.95;96.26
68609;SHT31;55581;46.718;7.690;2023-11-19T14:32:08;11.04;96.37
68609;SHT31;55581;46.718;7.690;2023-11-19T14:34:33;11.01;96.57
68609;SHT31;55581;46.718;7.690;2023-11-19T14:36:59;11.00;96.80
68609;SHT31;55581;46.718;7.690;2023-11-19T14:39:26;11.05;96.96
68609;SHT31;55581;46.718;7.690;2023-11-19T14:41:51;11.25;96.97
68609;SHT31;55581;46.718;7.690;2023-11-19T14:44:18;11.44;97.28
68609;SHT31;55581;46.718;7.690;2023-11-19T14:46:45;11.63;97.18
68609;SHT31;55581;46.718;7.690;2023-11-19T14:49:10;11.85;96.20
68609;SHT31;55581;46.718;7.690;2023-11-19T14:51:39;11.99;95.68
68609;SHT31;55581;46.718;7.690;2023-11-19T14:54:05;12.01;95.33
68609;SHT31;55581;46.718;7.690;2023-11-19T14:56:31;11.98;95.27
68609;SHT31;55581;46.718;7.690;2023-11-19T14:58:59;11.97;95.89
68609;SHT31;55581;46.718;7.690;2023-11-19T15:01:26;12.11;95.24
68609;SHT31;55581;46.718;7.690;2023-11-19T15:03:54;12.21;94.45
68609;SHT31;55581;46.718;7.690;2023-11-19T15:06:23;12.22;94.69
68609;SHT31;55581;46.718;7.690;2023-11-19T15:08:49;12.05;94.67
68609;SHT31;55581;46.718;7.690;2023-11-19T15:11:14;11.97;93.35
68609;SHT31;55581;46.718;7.690;2023-11-19T15:13:39;11.74;94.49
68609;SHT31;55581;46.718;7.690;2023-11-19T15:16:07;11.62;93.84
68609;SHT31;55581;46.718;7.690;2023-11-19T15:18:37;11.35;94.43
68609;SHT31;55581;46.718;7.690;2023-11-19T15:21:03;11.22;95.88
68609;SHT31;55581;46.718;7.690;2023-11-19T15:23:29;11.25;96.05
68609;SHT31;55581;46.718;7.690;2023-11-19T15:25:56;11.19;95.73
68609;SHT31;55581;46.718;7.690;2023-11-19T15:28:22;11.10;96.41
68609;SHT31;55581;46.718;7.690;2023-11-19T15:30:48;11.07;96.95
68609;SHT31;55581;46.718;7.690;2023-11-19T15:33:14;11.04;97.02
68609;SHT31;55581;46.718;7.690;2023-11-19T15:35:40;11.10;97.20
68609;SHT31;55581;46.718;7.690;2023-11-19T15:38:08;11.11;97.47
68609;SHT31;55581;46.718;7.690;2023-11-19T15:40:35;11.16;97.48
68609;SHT31;55581;46.718;7.690;2023-11-19T15:43:01;11.14;97.51
68609;SHT31;55581;46.718;7.690;2023-11-19T15:45:27;11.19;97.54
68609;SHT31;55581;46.718;7.690;2023-11-19T15:47:52;11.25;97.71
68609;SHT31;55581;46.718;7.690;2023-11-19T15:50:18;11.23;98.00
68609;SHT31;55581;46.718;7.690;2023-11-19T15:52:43;11.19;98.06
68609;SHT31;55581;46.718;7.690;2023-11-19T15:55:10;11.21;98.24